HLT weather

Hamilton Airport
Victoria, Australia

Public forecast

Using degrees Celsius for public forecast. Weather courtesy of forecast.io.

Closest aviation weather report (METAR) to Hamilton Airport

Closest report is Mount Gambier Airport, 61.1 nm (113.1 km) W. Retrieved 2019/10/21 18:30 UTC (15 minutes ago):

YMTG 211830Z AUTO 05002KT 0250 // OVC002 03/02 Q1024

Closest aviation forecast (TAF) to Hamilton Airport

Forecast is more than 12 hours old.

Closest forecast is Avalon Airport, 116.4 nm (215.5 km) ESE. Retrieved 2019/10/21 06:00 UTC (13 hours ago):

TAF YMAV 210507Z 2106/2206 14012KT CAVOK FM210800 16005KT 9999 BKN010 BECMG 2200/2201 13010KT CAVOK TEMPO 2112/2124 9999 BKN007